createdAt,value
2023-04-27T00:01:56.891Z,1.00
2023-04-27T00:04:24.141Z,1.00
2023-04-27T00:06:52.795Z,1.00
2023-04-27T00:09:21.314Z,1.00
2023-04-27T00:11:51.436Z,1.00
2023-04-27T00:14:18.523Z,1.00
2023-04-27T00:16:48.393Z,1.00
2023-04-27T00:19:17.084Z,1.00
2023-04-27T00:21:43.950Z,1.00
2023-04-27T00:24:11.449Z,1.00
2023-04-27T00:26:39.287Z,1.00
2023-04-27T00:29:09.171Z,1.00
2023-04-27T00:31:36.345Z,1.00
2023-04-27T00:34:03.488Z,1.00
2023-04-27T00:36:32.085Z,1.00
2023-04-27T00:38:59.673Z,1.00
2023-04-27T00:41:27.881Z,1.00
2023-04-27T00:43:55.892Z,29.00
2023-04-27T00:46:23.436Z,91.10
2023-04-27T00:48:51.591Z,99.90
2023-04-27T00:51:19.628Z,99.90
2023-04-27T00:53:47.114Z,1.00
2023-04-27T00:56:14.682Z,99.90
2023-04-27T00:58:42.895Z,1.00
2023-04-27T01:01:11.415Z,1.00
2023-04-27T01:03:39.242Z,1.00
2023-04-27T01:06:07.031Z,1.00
2023-04-27T01:08:34.632Z,27.20
2023-04-27T01:11:02.244Z,27.40
2023-04-27T01:13:29.756Z,27.50
2023-04-27T01:15:57.371Z,27.60
2023-04-27T01:18:24.725Z,27.80
2023-04-27T01:20:52.766Z,28.10
2023-04-27T01:23:19.788Z,28.40
2023-04-27T01:25:47.075Z,28.80
2023-04-27T01:28:14.102Z,29.10
2023-04-27T01:30:42.022Z,29.60
2023-04-27T01:33:09.667Z,30.00
2023-04-27T01:35:37.804Z,30.00
2023-04-27T01:38:05.597Z,30.30
2023-04-27T01:40:32.942Z,30.90
2023-04-27T01:43:00.165Z,31.00
2023-04-27T01:45:27.603Z,31.30
2023-04-27T01:47:55.283Z,31.90
2023-04-27T01:50:23.259Z,32.00
2023-04-27T01:52:51.003Z,32.30
2023-04-27T01:55:18.763Z,32.90
2023-04-27T01:57:45.774Z,33.40
2023-04-27T02:00:14.605Z,33.80
2023-04-27T02:02:42.734Z,34.20
2023-04-27T02:05:11.125Z,34.80
2023-04-27T02:07:38.921Z,35.40
2023-04-27T02:10:07.512Z,36.10
2023-04-27T02:12:35.412Z,36.30
2023-04-27T02:15:07.513Z,37.00
2023-04-27T02:17:39.597Z,37.60
2023-04-27T02:20:08.176Z,38.30
2023-04-27T02:22:35.936Z,39.50
2023-04-27T02:25:04.462Z,39.80
2023-04-27T02:27:32.262Z,40.70
2023-04-27T02:29:59.498Z,41.90
2023-04-27T02:32:28.379Z,43.00
2023-04-27T02:34:57.431Z,44.10
2023-04-27T02:37:24.999Z,45.20
2023-04-27T02:39:52.440Z,46.30
2023-04-27T02:42:19.616Z,47.70
2023-04-27T02:44:49.593Z,48.50
2023-04-27T02:47:19.400Z,49.20
2023-04-27T02:49:46.909Z,50.20
2023-04-27T02:52:14.419Z,51.40
2023-04-27T02:54:41.974Z,52.20
2023-04-27T02:57:10.216Z,53.00
2023-04-27T02:59:42.263Z,52.40
2023-04-27T03:02:09.858Z,53.80
2023-04-27T03:04:38.395Z,54.40
2023-04-27T03:07:06.724Z,56.00
2023-04-27T03:09:34.309Z,56.40
2023-04-27T03:12:01.346Z,56.90
2023-04-27T03:14:31.462Z,57.60
2023-04-27T03:17:08.803Z,58.20
2023-04-27T03:19:36.275Z,58.80
2023-04-27T03:22:04.617Z,59.60
2023-04-27T03:24:32.215Z,60.50
2023-04-27T03:26:59.509Z,63.10
2023-04-27T03:29:27.291Z,63.60
2023-04-27T03:31:54.295Z,65.80
2023-04-27T03:34:22.898Z,66.10
2023-04-27T03:36:50.169Z,67.60
2023-04-27T03:39:17.758Z,68.60
2023-04-27T03:41:45.384Z,71.10
2023-04-27T03:44:12.482Z,71.30
2023-04-27T03:46:39.297Z,72.50
2023-04-27T03:49:06.656Z,73.60
2023-04-27T03:51:33.647Z,75.70
2023-04-27T03:54:01.326Z,75.60
2023-04-27T03:56:28.092Z,76.60
2023-04-27T03:58:55.355Z,77.40
2023-04-27T04:01:22.886Z,79.10
2023-04-27T04:03:51.705Z,79.50
2023-04-27T04:06:19.587Z,81.30
2023-04-27T04:08:47.037Z,80.70
2023-04-27T04:11:14.785Z,81.50
2023-04-27T04:13:43.111Z,82.40
2023-04-27T04:16:11.520Z,82.50
2023-04-27T04:18:39.385Z,84.70
2023-04-27T04:21:07.141Z,84.10
2023-04-27T04:23:34.874Z,85.40
2023-04-27T04:26:02.950Z,85.80
2023-04-27T04:28:29.903Z,87.50
2023-04-27T04:30:56.845Z,86.90
2023-04-27T04:33:24.684Z,85.80
2023-04-27T04:35:52.143Z,86.60
2023-04-27T04:38:20.020Z,88.00
2023-04-27T04:40:50.192Z,88.00
2023-04-27T04:43:18.236Z,87.80
2023-04-27T04:45:46.739Z,87.80
2023-04-27T04:48:17.201Z,88.40
2023-04-27T04:50:44.795Z,87.30
2023-04-27T04:53:12.389Z,86.90
2023-04-27T04:55:40.257Z,87.70
2023-04-27T04:58:08.280Z,88.50
2023-04-27T05:00:35.479Z,89.20
2023-04-27T05:03:03.480Z,89.40
2023-04-27T05:05:31.158Z,89.20
2023-04-27T05:07:59.497Z,89.90
2023-04-27T05:10:27.532Z,89.40
2023-04-27T05:12:55.004Z,87.90
2023-04-27T05:15:25.000Z,88.60
2023-04-27T05:17:54.704Z,87.70
2023-04-27T05:20:22.172Z,87.10
2023-04-27T05:22:49.893Z,88.20
2023-04-27T05:25:20.897Z,87.00
2023-04-27T05:27:48.571Z,86.50
2023-04-27T05:30:16.428Z,86.20
2023-04-27T05:32:44.225Z,86.80
2023-04-27T05:35:11.957Z,85.90
2023-04-27T05:37:39.352Z,86.10
2023-04-27T05:40:09.779Z,85.70
2023-04-27T05:42:37.953Z,86.80
2023-04-27T05:45:05.974Z,87.60
2023-04-27T05:47:33.838Z,86.80
2023-04-27T05:50:01.484Z,85.90
2023-04-27T05:52:31.505Z,84.80
2023-04-27T05:54:58.832Z,87.60
2023-04-27T05:57:27.002Z,84.90
2023-04-27T05:59:54.142Z,84.10
2023-04-27T06:02:22.771Z,84.20
2023-04-27T06:04:50.420Z,83.90
2023-04-27T06:07:21.264Z,83.00
2023-04-27T06:09:48.476Z,82.40
2023-04-27T06:12:16.221Z,81.70
2023-04-27T06:14:44.137Z,81.10
2023-04-27T06:17:12.357Z,80.70
2023-04-27T06:19:40.077Z,81.10
2023-04-27T06:22:07.191Z,77.60
2023-04-27T06:24:39.423Z,77.80
2023-04-27T06:27:06.491Z,73.90
2023-04-27T06:29:33.469Z,74.30
2023-04-27T06:32:00.524Z,73.70
2023-04-27T06:34:28.185Z,71.60
2023-04-27T06:36:54.875Z,72.40
2023-04-27T06:39:25.373Z,70.30
2023-04-27T06:41:52.853Z,68.80
2023-04-27T06:44:19.659Z,66.20
2023-04-27T06:46:47.551Z,64.00
2023-04-27T06:49:14.975Z,62.20
2023-04-27T06:51:42.163Z,59.20
2023-04-27T06:54:09.162Z,56.90
2023-04-27T06:56:36.595Z,56.60
2023-04-27T06:59:07.546Z,54.00
2023-04-27T07:01:35.231Z,53.20
2023-04-27T07:04:03.981Z,51.70
2023-04-27T07:06:31.822Z,51.00
2023-04-27T07:08:59.720Z,49.70
2023-04-27T07:11:27.456Z,48.00
2023-04-27T07:13:54.591Z,47.00
2023-04-27T07:16:22.334Z,45.60
2023-04-27T07:18:49.519Z,44.20
2023-04-27T07:21:16.980Z,43.40
2023-04-27T07:23:47.212Z,42.90
2023-04-27T07:26:14.287Z,42.30
2023-04-27T07:28:41.776Z,40.90
2023-04-27T07:31:09.285Z,40.30
2023-04-27T07:33:40.596Z,40.20
2023-04-27T07:36:07.964Z,40.20
2023-04-27T07:38:35.813Z,38.00
2023-04-27T07:41:06.258Z,37.80
2023-04-27T07:43:34.031Z,36.80
2023-04-27T07:46:05.558Z,35.00
2023-04-27T07:48:33.413Z,34.50
2023-04-27T07:51:00.373Z,33.60
2023-04-27T07:53:28.936Z,33.20
2023-04-27T07:55:56.778Z,31.90
2023-04-27T07:58:24.211Z,30.00
2023-04-27T08:00:58.131Z,30.30
2023-04-27T08:03:25.259Z,28.40
2023-04-27T08:05:53.195Z,27.40
2023-04-27T08:08:21.761Z,26.90
2023-04-27T08:10:49.250Z,26.00
2023-04-27T08:13:17.094Z,24.90
2023-04-27T08:15:43.865Z,24.30
2023-04-27T08:18:10.962Z,24.10
2023-04-27T08:20:37.890Z,24.70
2023-04-27T08:23:06.057Z,24.60
2023-04-27T08:25:33.520Z,24.60
2023-04-27T08:28:01.447Z,24.60
2023-04-27T08:30:28.718Z,24.20
2023-04-27T08:32:56.761Z,23.20
2023-04-27T08:35:24.511Z,23.10
2023-04-27T08:37:53.008Z,22.60
2023-04-27T08:40:20.644Z,22.90
2023-04-27T08:43:00.101Z,21.40
2023-04-27T08:45:29.463Z,20.00
2023-04-27T08:47:57.295Z,20.90
2023-04-27T08:50:24.791Z,19.70
2023-04-27T08:52:53.188Z,19.80
2023-04-27T08:55:20.083Z,19.00
2023-04-27T08:57:57.016Z,18.70
2023-04-27T09:00:27.401Z,18.20
2023-04-27T09:02:55.463Z,17.60
2023-04-27T09:05:26.946Z,17.70
2023-04-27T09:08:09.661Z,17.40
2023-04-27T09:10:50.864Z,17.40
2023-04-27T09:13:18.570Z,17.50
2023-04-27T09:15:50.929Z,17.40
2023-04-27T09:18:23.181Z,17.80
2023-04-27T09:20:52.024Z,17.00
2023-04-27T09:23:37.569Z,16.60
2023-04-27T09:26:10.078Z,15.90
2023-04-27T09:28:40.554Z,16.10
2023-04-27T09:31:09.482Z,15.30
2023-04-27T09:33:36.665Z,15.30
2023-04-27T09:36:06.551Z,15.70
2023-04-27T09:38:34.065Z,15.70
2023-04-27T09:41:01.505Z,15.70
2023-04-27T09:43:29.892Z,15.80
2023-04-27T09:45:57.746Z,15.50
2023-04-27T09:48:26.222Z,15.00
2023-04-27T09:50:53.484Z,15.00
2023-04-27T09:53:25.156Z,15.10
2023-04-27T09:56:07.120Z,14.80
2023-04-27T09:59:07.810Z,14.80
2023-04-27T10:01:55.714Z,14.70
2023-04-27T10:04:34.984Z,14.40
2023-04-27T10:07:13.177Z,14.30
2023-04-27T10:09:47.630Z,14.10
2023-04-27T10:12:28.015Z,13.90
2023-04-27T10:14:59.909Z,13.70
2023-04-27T10:17:35.811Z,13.60
2023-04-27T10:20:04.554Z,13.90
2023-04-27T10:22:41.525Z,14.00
2023-04-27T10:25:23.259Z,13.40
2023-04-27T10:28:01.400Z,13.30
2023-04-27T10:30:39.286Z,13.30
2023-04-27T10:33:10.981Z,13.50
2023-04-27T10:35:44.575Z,13.00
2023-04-27T10:38:18.221Z,12.50
2023-04-27T10:40:54.046Z,12.90
2023-04-27T10:43:27.860Z,12.80
2023-04-27T10:45:55.701Z,12.90
2023-04-27T10:48:22.493Z,12.80
2023-04-27T10:50:51.722Z,12.60
2023-04-27T10:53:18.762Z,12.40
2023-04-27T10:55:45.534Z,12.50
2023-04-27T10:58:12.526Z,12.50
2023-04-27T11:00:44.171Z,12.40
2023-04-27T11:03:21.025Z,12.30
2023-04-27T11:05:49.226Z,12.40
2023-04-27T11:08:21.424Z,12.50
2023-04-27T11:10:50.292Z,12.30
2023-04-27T11:13:28.262Z,12.00
2023-04-27T11:15:57.876Z,11.80
2023-04-27T11:18:32.542Z,11.60
2023-04-27T11:21:09.480Z,11.30
2023-04-27T11:23:38.165Z,11.40
2023-04-27T11:26:14.661Z,11.30
2023-04-27T11:28:42.713Z,11.20
2023-04-27T11:31:09.779Z,11.30
2023-04-27T11:33:36.815Z,10.90
2023-04-27T11:36:03.682Z,10.80
2023-04-27T11:38:34.047Z,10.20
2023-04-27T11:41:04.143Z,10.40
2023-04-27T11:43:31.678Z,10.10
2023-04-27T11:45:58.925Z,10.30
2023-04-27T11:48:28.335Z,10.00
2023-04-27T11:50:59.750Z,9.50
2023-04-27T11:53:38.772Z,9.70
2023-04-27T11:56:10.670Z,9.70
2023-04-27T11:58:39.038Z,10.10
2023-04-27T12:01:06.398Z,10.10
2023-04-27T12:03:33.727Z,9.90
2023-04-27T12:06:16.098Z,9.50
2023-04-27T12:08:47.903Z,9.50
2023-04-27T12:11:15.042Z,9.30
2023-04-27T12:13:41.831Z,9.20
2023-04-27T12:16:08.585Z,9.20
2023-04-27T12:18:35.330Z,9.50
2023-04-27T12:21:03.485Z,9.20
2023-04-27T12:23:31.024Z,9.10
2023-04-27T12:25:57.784Z,8.60
2023-04-27T12:28:24.510Z,8.60
2023-04-27T12:30:51.503Z,8.60
2023-04-27T12:33:18.304Z,8.40
2023-04-27T12:35:46.092Z,8.00
2023-04-27T12:38:13.068Z,7.80
2023-04-27T12:40:39.813Z,7.40
2023-04-27T12:43:08.350Z,7.50
2023-04-27T12:45:35.250Z,7.60
2023-04-27T12:48:03.799Z,7.40
2023-04-27T12:50:39.026Z,7.60
2023-04-27T12:53:05.782Z,6.90
2023-04-27T12:55:34.458Z,7.00
2023-04-27T12:58:02.462Z,7.50
2023-04-27T13:00:29.884Z,7.10
2023-04-27T13:02:57.394Z,7.00
2023-04-27T13:05:24.484Z,7.00
2023-04-27T13:07:51.170Z,6.70
2023-04-27T13:10:18.107Z,7.10
2023-04-27T13:12:46.038Z,6.40
2023-04-27T13:15:12.849Z,5.80
2023-04-27T13:17:40.998Z,5.90
2023-04-27T13:20:09.734Z,6.00
2023-04-27T13:22:36.592Z,6.00
2023-04-27T13:25:03.662Z,6.70
2023-04-27T13:27:30.446Z,5.80
2023-04-27T13:29:57.132Z,5.60
2023-04-27T13:32:23.852Z,5.10
2023-04-27T13:34:50.666Z,4.60
2023-04-27T13:37:18.368Z,4.40
2023-04-27T13:39:45.632Z,4.20
2023-04-27T13:42:13.918Z,3.80
2023-04-27T13:44:41.193Z,3.50
2023-04-27T13:47:08.366Z,3.20
2023-04-27T13:49:35.455Z,2.60
2023-04-27T13:52:02.798Z,2.60
2023-04-27T13:54:30.034Z,2.60
2023-04-27T13:56:58.283Z,2.50
2023-04-27T13:59:25.748Z,2.40
2023-04-27T14:01:53.724Z,1.70
2023-04-27T14:04:21.050Z,2.20
2023-04-27T14:06:48.989Z,1.40
2023-04-27T14:09:16.624Z,1.20
2023-04-27T14:11:56.356Z,1.20
2023-04-27T14:14:24.624Z,1.10
2023-04-27T14:16:52.734Z,1.30
2023-04-27T14:19:20.882Z,1.40
2023-04-27T14:21:51.910Z,2.00
2023-04-27T14:24:19.665Z,2.60
2023-04-27T14:26:47.838Z,2.60
2023-04-27T14:29:15.482Z,3.10
2023-04-27T14:31:43.253Z,3.30
2023-04-27T14:34:11.251Z,3.80
2023-04-27T14:36:38.455Z,4.00
2023-04-27T14:39:07.067Z,3.90
2023-04-27T14:41:36.770Z,4.10
2023-04-27T14:44:07.728Z,4.20
2023-04-27T14:46:35.758Z,4.40
2023-04-27T14:49:03.007Z,4.40
2023-04-27T14:51:30.126Z,4.10
2023-04-27T14:53:57.282Z,4.30
2023-04-27T14:56:25.054Z,4.50
2023-04-27T14:58:52.379Z,4.60
2023-04-27T15:01:19.544Z,4.80
2023-04-27T15:03:47.771Z,4.70
2023-04-27T15:06:17.566Z,4.40
2023-04-27T15:08:45.141Z,4.40
2023-04-27T15:11:12.289Z,4.50
2023-04-27T15:13:39.228Z,4.20
2023-04-27T15:16:07.461Z,3.70
2023-04-27T15:18:35.638Z,3.80
2023-04-27T15:21:02.787Z,3.80
2023-04-27T15:23:30.642Z,3.70
2023-04-27T15:26:01.132Z,3.80
2023-04-27T15:28:28.688Z,3.80
2023-04-27T15:30:56.798Z,3.50
2023-04-27T15:33:24.262Z,3.50
2023-04-27T15:35:51.816Z,3.60
2023-04-27T15:38:20.185Z,3.50
2023-04-27T15:40:48.015Z,3.50
2023-04-27T15:43:15.281Z,3.60
2023-04-27T15:45:44.274Z,3.40
2023-04-27T15:48:15.675Z,3.60
2023-04-27T15:50:45.371Z,2.90
2023-04-27T15:53:12.299Z,1.90
2023-04-27T15:55:39.614Z,1.20
2023-04-27T15:58:06.560Z,1.00
2023-04-27T16:00:33.704Z,1.00
2023-04-27T16:03:00.942Z,1.00
2023-04-27T16:05:27.974Z,1.00
2023-04-27T16:07:54.830Z,1.00
2023-04-27T16:10:21.573Z,1.00
2023-04-27T16:12:48.352Z,1.00
2023-04-27T16:15:15.094Z,1.00
2023-04-27T16:17:41.983Z,1.00
2023-04-27T16:20:09.528Z,1.00
2023-04-27T16:22:37.690Z,1.00
2023-04-27T16:25:10.268Z,1.00
2023-04-27T16:27:38.310Z,1.00
2023-04-27T16:30:06.665Z,1.00
2023-04-27T16:32:35.403Z,1.00
2023-04-27T16:35:03.063Z,1.00
2023-04-27T16:37:29.925Z,1.00
2023-04-27T16:39:59.745Z,1.00
2023-04-27T16:42:26.605Z,1.00
2023-04-27T16:44:53.375Z,1.00
2023-04-27T16:47:20.123Z,1.00
2023-04-27T16:49:46.917Z,1.00
2023-04-27T16:52:13.673Z,1.00
2023-04-27T16:54:41.467Z,1.00
2023-04-27T16:57:08.311Z,1.00
2023-04-27T16:59:35.092Z,1.00
2023-04-27T17:02:16.316Z,1.00
2023-04-27T17:04:48.333Z,1.00
2023-04-27T17:07:15.110Z,1.00
2023-04-27T17:09:42.032Z,1.00
2023-04-27T17:12:12.277Z,1.00
2023-04-27T17:14:39.194Z,1.00
2023-04-27T17:17:06.340Z,1.00
2023-04-27T17:19:33.081Z,1.00
2023-04-27T17:21:59.915Z,1.00
2023-04-27T17:24:26.947Z,1.00
2023-04-27T17:26:54.955Z,1.00
2023-04-27T17:29:21.953Z,1.00
2023-04-27T17:31:50.148Z,1.00
2023-04-27T17:34:17.837Z,1.00
2023-04-27T17:36:45.886Z,1.00
2023-04-27T17:39:13.739Z,1.00
2023-04-27T17:41:41.084Z,1.00
2023-04-27T17:44:08.117Z,1.00
2023-04-27T17:46:34.929Z,1.00
2023-04-27T17:49:01.726Z,1.00
2023-04-27T17:51:28.487Z,1.00
2023-04-27T17:53:55.258Z,1.00
2023-04-27T17:56:22.473Z,1.00
2023-04-27T17:58:49.232Z,1.00
2023-04-27T18:01:16.147Z,1.00
2023-04-27T18:03:43.147Z,1.00
2023-04-27T18:06:09.994Z,1.00
2023-04-27T18:08:36.688Z,1.00
2023-04-27T18:11:03.522Z,1.00
2023-04-27T18:13:32.235Z,1.00
2023-04-27T18:15:59.326Z,1.00
2023-04-27T18:18:26.920Z,1.00
2023-04-27T18:20:53.707Z,1.00
2023-04-27T18:23:20.778Z,1.00
2023-04-27T18:25:47.538Z,1.00
2023-04-27T18:28:14.319Z,1.00
2023-04-27T18:30:41.381Z,1.00
2023-04-27T18:33:08.320Z,1.00
2023-04-27T18:35:35.282Z,1.00
2023-04-27T18:38:03.372Z,1.00
2023-04-27T18:40:30.698Z,1.00
2023-04-27T18:42:57.641Z,1.00
2023-04-27T18:45:24.534Z,1.00
2023-04-27T18:47:51.677Z,1.00
2023-04-27T18:50:19.164Z,1.00
2023-04-27T18:52:46.678Z,1.00
2023-04-27T18:55:17.747Z,1.00
2023-04-27T18:57:45.568Z,1.00
2023-04-27T19:00:13.100Z,1.00
2023-04-27T19:02:40.386Z,1.00
2023-04-27T19:05:12.850Z,1.00
2023-04-27T19:07:40.937Z,1.00
2023-04-27T19:10:08.424Z,1.00
2023-04-27T19:12:35.889Z,1.00
2023-04-27T19:15:03.081Z,1.00
2023-04-27T19:17:30.436Z,1.00
2023-04-27T19:19:57.451Z,1.00
2023-04-27T19:22:24.586Z,1.00
2023-04-27T19:24:51.389Z,1.00
2023-04-27T19:27:18.093Z,1.00
2023-04-27T19:29:51.974Z,1.00
2023-04-27T19:32:19.650Z,1.00
2023-04-27T19:34:46.741Z,1.00
2023-04-27T19:37:13.726Z,1.00
2023-04-27T19:39:40.515Z,1.00
2023-04-27T19:42:07.264Z,1.00
2023-04-27T19:44:34.051Z,1.00
2023-04-27T19:47:00.979Z,1.00
2023-04-27T19:49:32.716Z,1.00
2023-04-27T19:52:00.180Z,1.00
2023-04-27T19:54:26.988Z,1.00
2023-04-27T19:56:54.814Z,1.00
2023-04-27T19:59:21.961Z,1.00
2023-04-27T20:01:48.867Z,1.00
2023-04-27T20:04:17.709Z,1.00
2023-04-27T20:06:45.044Z,1.00
2023-04-27T20:09:11.851Z,1.00
2023-04-27T20:11:38.623Z,1.00
2023-04-27T20:14:05.595Z,1.00
2023-04-27T20:16:32.394Z,1.00
2023-04-27T20:18:59.187Z,1.00
2023-04-27T20:21:27.987Z,1.00
2023-04-27T20:23:55.001Z,1.00
2023-04-27T20:26:22.529Z,1.00
2023-04-27T20:28:49.366Z,1.00
2023-04-27T20:31:16.521Z,1.00
2023-04-27T20:33:43.458Z,1.00
2023-04-27T20:36:17.038Z,1.00
2023-04-27T20:38:45.184Z,1.00
2023-04-27T20:41:15.229Z,1.00
2023-04-27T20:43:41.939Z,1.00
2023-04-27T20:46:11.050Z,1.00
2023-04-27T20:48:38.179Z,1.00
2023-04-27T20:51:05.026Z,1.00
2023-04-27T20:53:31.905Z,1.00
2023-04-27T20:55:58.738Z,1.00
2023-04-27T20:58:25.695Z,1.00
2023-04-27T21:00:52.495Z,1.00
2023-04-27T21:03:19.335Z,1.00
2023-04-27T21:05:47.212Z,1.00
2023-04-27T21:08:14.035Z,1.00
2023-04-27T21:10:41.199Z,1.00
2023-04-27T21:13:07.973Z,1.00
2023-04-27T21:15:34.808Z,1.00
2023-04-27T21:18:01.759Z,1.00
2023-04-27T21:20:28.619Z,1.00
2023-04-27T21:22:56.146Z,1.00
2023-04-27T21:25:23.829Z,1.00
2023-04-27T21:27:51.002Z,1.00
2023-04-27T21:30:17.861Z,1.00
2023-04-27T21:32:44.895Z,1.00
2023-04-27T21:35:11.793Z,1.00
2023-04-27T21:37:38.541Z,1.00
2023-04-27T21:40:06.330Z,1.00
2023-04-27T21:42:33.006Z,1.00
2023-04-27T21:44:59.939Z,1.00
2023-04-27T21:47:26.851Z,1.00
2023-04-27T21:49:53.831Z,1.00
2023-04-27T21:52:21.656Z,1.00
2023-04-27T21:54:48.635Z,1.00
2023-04-27T21:57:16.582Z,1.00
2023-04-27T21:59:44.379Z,1.00
2023-04-27T22:02:11.136Z,1.00
2023-04-27T22:04:39.043Z,1.00
2023-04-27T22:07:08.079Z,1.00
2023-04-27T22:09:35.693Z,1.00
2023-04-27T22:12:05.740Z,1.00
2023-04-27T22:14:32.786Z,1.00
2023-04-27T22:17:00.838Z,1.00
2023-04-27T22:19:28.700Z,1.00
2023-04-27T22:21:55.724Z,1.00
2023-04-27T22:24:22.822Z,1.00
2023-04-27T22:26:49.585Z,1.00
2023-04-27T22:29:16.582Z,1.00
2023-04-27T22:31:44.526Z,1.00
2023-04-27T22:34:14.470Z,1.00
2023-04-27T22:36:41.424Z,1.00
2023-04-27T22:39:08.363Z,1.00
2023-04-27T22:41:35.128Z,1.00
2023-04-27T22:44:02.289Z,1.00
2023-04-27T22:46:29.148Z,1.00
2023-04-27T22:48:56.547Z,1.00
2023-04-27T22:51:23.934Z,1.00
2023-04-27T22:53:50.758Z,1.00
2023-04-27T22:56:17.521Z,1.00
2023-04-27T22:58:44.222Z,1.00
2023-04-27T23:01:11.092Z,1.00
2023-04-27T23:03:38.518Z,1.00
2023-04-27T23:06:05.780Z,1.00
2023-04-27T23:08:32.437Z,1.00
2023-04-27T23:10:59.134Z,1.00
2023-04-27T23:13:27.502Z,1.00
2023-04-27T23:15:55.290Z,1.00
2023-04-27T23:18:22.598Z,1.00
2023-04-27T23:20:56.365Z,1.00
2023-04-27T23:23:23.940Z,1.00
2023-04-27T23:25:51.710Z,1.00
2023-04-27T23:28:19.611Z,1.00
2023-04-27T23:30:53.923Z,1.00
2023-04-27T23:33:22.300Z,1.00
2023-04-27T23:35:49.716Z,1.00
2023-04-27T23:38:17.798Z,1.00
2023-04-27T23:40:45.149Z,1.00
2023-04-27T23:43:16.045Z,1.00
2023-04-27T23:45:51.803Z,1.00
2023-04-27T23:48:23.390Z,1.00
2023-04-27T23:51:02.586Z,1.00
2023-04-27T23:53:30.626Z,1.00
2023-04-27T23:55:58.227Z,1.00
2023-04-27T23:58:26.700Z,1.00
